sensor_id;sensor_type;location;lat;lon;timestamp;pressure;altitude;pressure_sealevel;temperature;humidity
77043;BME280;65975;53.936;27.540;2022-12-18T00:01:36;99787.44;;;-5.64;75.78
77043;BME280;65975;53.936;27.540;2022-12-18T00:04:06;99741.81;;;-6.34;77.33
77043;BME280;65975;53.936;27.540;2022-12-18T00:06:33;99777.00;;;-6.08;76.45
77043;BME280;65975;53.936;27.540;2022-12-18T00:09:01;99768.25;;;-6.32;77.21
77043;BME280;65975;53.936;27.540;2022-12-18T00:11:28;99821.88;;;-6.12;76.87
77043;BME280;65975;53.936;27.540;2022-12-18T00:13:56;99788.22;;;-6.04;76.52
77043;BME280;65975;53.936;27.540;2022-12-18T00:16:23;99829.47;;;-5.55;75.62
77043;BME280;65975;53.936;27.540;2022-12-18T00:18:50;99835.63;;;-5.70;74.90
77043;BME280;65975;53.936;27.540;2022-12-18T00:21:16;99832.50;;;-5.64;75.33
77043;BME280;65975;53.936;27.540;2022-12-18T00:23:43;99829.94;;;-5.83;74.75
77043;BME280;65975;53.936;27.540;2022-12-18T00:26:18;99815.72;;;-5.59;74.58
77043;BME280;65975;53.936;27.540;2022-12-18T00:28:45;99817.88;;;-5.87;74.25
77043;BME280;65975;53.936;27.540;2022-12-18T00:31:13;99833.28;;;-6.21;74.89
77043;BME280;65975;53.936;27.540;2022-12-18T00:33:39;99849.41;;;-5.85;75.14
77043;BME280;65975;53.936;27.540;2022-12-18T00:36:07;99833.22;;;-5.86;74.44
77043;BME280;65975;53.936;27.540;2022-12-18T00:38:33;99854.88;;;-5.76;74.21
77043;BME280;65975;53.936;27.540;2022-12-18T00:40:58;99843.00;;;-5.76;73.71
77043;BME280;65975;53.936;27.540;2022-12-18T00:43:24;99794.44;;;-6.17;74.37
77043;BME280;65975;53.936;27.540;2022-12-18T00:45:50;99840.28;;;-5.80;74.55
77043;BME280;65975;53.936;27.540;2022-12-18T00:48:15;99839.56;;;-6.15;75.49
77043;BME280;65975;53.936;27.540;2022-12-18T00:50:41;99820.88;;;-6.33;75.12
77043;BME280;65975;53.936;27.540;2022-12-18T00:53:15;99854.03;;;-6.14;75.09
77043;BME280;65975;53.936;27.540;2022-12-18T00:55:41;99851.84;;;-6.06;74.69
77043;BME280;65975;53.936;27.540;2022-12-18T00:58:08;99854.06;;;-6.49;75.67
77043;BME280;65975;53.936;27.540;2022-12-18T01:00:34;99854.50;;;-6.40;75.53
77043;BME280;65975;53.936;27.540;2022-12-18T01:03:00;99856.88;;;-6.61;76.22
77043;BME280;65975;53.936;27.540;2022-12-18T01:05:25;99860.78;;;-6.67;76.72
77043;BME280;65975;53.936;27.540;2022-12-18T01:07:51;99827.94;;;-6.80;76.48
77043;BME280;65975;53.936;27.540;2022-12-18T01:10:17;99830.09;;;-6.88;76.43
77043;BME280;65975;53.936;27.540;2022-12-18T01:12:42;99854.22;;;-6.80;77.10
77043;BME280;65975;53.936;27.540;2022-12-18T01:15:10;99848.38;;;-7.13;77.94
77043;BME280;65975;53.936;27.540;2022-12-18T01:17:36;99837.06;;;-6.84;77.08
77043;BME280;65975;53.936;27.540;2022-12-18T01:20:02;99865.03;;;-6.68;76.39
77043;BME280;65975;53.936;27.540;2022-12-18T01:22:28;99874.88;;;-6.92;77.05
77043;BME280;65975;53.936;27.540;2022-12-18T01:24:54;99799.69;;;-7.19;77.47
77043;BME280;65975;53.936;27.540;2022-12-18T01:27:19;99845.69;;;-6.98;77.06
77043;BME280;65975;53.936;27.540;2022-12-18T01:29:45;99751.50;;;-7.50;76.44
77043;BME280;65975;53.936;27.540;2022-12-18T01:32:10;99767.50;;;-7.18;76.28
77043;BME280;65975;53.936;27.540;2022-12-18T01:34:37;99867.59;;;-7.02;76.88
77043;BME280;65975;53.936;27.540;2022-12-18T01:37:04;99874.78;;;-6.93;76.88
77043;BME280;65975;53.936;27.540;2022-12-18T01:39:30;99845.44;;;-7.20;77.04
77043;BME280;65975;53.936;27.540;2022-12-18T01:42:00;99875.97;;;-6.87;77.38
77043;BME280;65975;53.936;27.540;2022-12-18T01:49:49;99811.44;;;-7.05;75.56
77043;BME280;65975;53.936;27.540;2022-12-18T01:52:15;99892.38;;;-6.81;75.13
77043;BME280;65975;53.936;27.540;2022-12-18T01:54:41;99871.44;;;-6.92;76.05
77043;BME280;65975;53.936;27.540;2022-12-18T01:57:07;99881.63;;;-6.92;76.30
77043;BME280;65975;53.936;27.540;2022-12-18T01:59:33;99902.16;;;-7.05;76.04
77043;BME280;65975;53.936;27.540;2022-12-18T02:02:00;99842.81;;;-7.22;75.90
77043;BME280;65975;53.936;27.540;2022-12-18T02:04:27;99907.19;;;-7.07;76.04
77043;BME280;65975;53.936;27.540;2022-12-18T02:07:20;99916.16;;;-6.81;75.56
77043;BME280;65975;53.936;27.540;2022-12-18T02:09:59;99924.28;;;-6.88;75.73
77043;BME280;65975;53.936;27.540;2022-12-18T02:12:41;99930.94;;;-6.90;75.70
77043;BME280;65975;53.936;27.540;2022-12-18T02:15:24;99907.13;;;-7.08;75.44
77043;BME280;65975;53.936;27.540;2022-12-18T02:17:57;99924.00;;;-6.76;75.09
77043;BME280;65975;53.936;27.540;2022-12-18T02:20:33;99887.16;;;-7.49;75.97
77043;BME280;65975;53.936;27.540;2022-12-18T02:29:03;99948.84;;;-6.89;75.37
77043;BME280;65975;53.936;27.540;2022-12-18T02:31:36;99958.22;;;-6.71;75.27
77043;BME280;65975;53.936;27.540;2022-12-18T02:34:06;99954.91;;;-7.03;75.60
77043;BME280;65975;53.936;27.540;2022-12-18T02:36:33;99965.63;;;-7.24;76.08
77043;BME280;65975;53.936;27.540;2022-12-18T02:39:02;99954.28;;;-7.15;75.64
77043;BME280;65975;53.936;27.540;2022-12-18T02:41:29;99975.31;;;-6.85;75.28
77043;BME280;65975;53.936;27.540;2022-12-18T02:43:58;99971.19;;;-7.15;75.55
77043;BME280;65975;53.936;27.540;2022-12-18T02:49:01;99999.00;;;-7.18;76.17
77043;BME280;65975;53.936;27.540;2022-12-18T02:51:39;99972.59;;;-7.37;75.87
77043;BME280;65975;53.936;27.540;2022-12-18T02:54:23;99956.50;;;-7.68;75.88
77043;BME280;65975;53.936;27.540;2022-12-18T02:56:55;100023.94;;;-7.13;75.72
77043;BME280;65975;53.936;27.540;2022-12-18T02:59:43;100025.59;;;-6.97;75.32
77043;BME280;65975;53.936;27.540;2022-12-18T03:02:39;100033.94;;;-6.67;74.50
77043;BME280;65975;53.936;27.540;2022-12-18T03:05:12;100036.56;;;-7.14;74.80
77043;BME280;65975;53.936;27.540;2022-12-18T03:07:44;100038.88;;;-6.87;74.05
77043;BME280;65975;53.936;27.540;2022-12-18T03:10:14;100038.81;;;-6.88;73.81
77043;BME280;65975;53.936;27.540;2022-12-18T03:12:47;100034.25;;;-7.10;74.55
77043;BME280;65975;53.936;27.540;2022-12-18T03:15:25;100030.16;;;-6.75;73.07
77043;BME280;65975;53.936;27.540;2022-12-18T03:17:56;100015.66;;;-7.09;74.15
77043;BME280;65975;53.936;27.540;2022-12-18T03:20:24;100022.47;;;-7.24;74.26
77043;BME280;65975;53.936;27.540;2022-12-18T03:22:56;100016.06;;;-7.01;73.53
77043;BME280;65975;53.936;27.540;2022-12-18T03:25:24;100031.34;;;-7.32;74.13
77043;BME280;65975;53.936;27.540;2022-12-18T03:27:54;100032.22;;;-7.32;75.00
77043;BME280;65975;53.936;27.540;2022-12-18T03:30:21;100024.25;;;-7.54;74.75
77043;BME280;65975;53.936;27.540;2022-12-18T03:32:52;100020.25;;;-7.18;74.57
77043;BME280;65975;53.936;27.540;2022-12-18T03:35:26;100045.78;;;-7.16;74.94
77043;BME280;65975;53.936;27.540;2022-12-18T03:37:54;100087.03;;;-7.22;75.08
77043;BME280;65975;53.936;27.540;2022-12-18T03:40:23;100048.31;;;-7.33;74.91
77043;BME280;65975;53.936;27.540;2022-12-18T03:42:57;100090.38;;;-7.23;74.74
77043;BME280;65975;53.936;27.540;2022-12-18T03:45:32;100081.84;;;-7.23;74.35
77043;BME280;65975;53.936;27.540;2022-12-18T03:48:04;100024.78;;;-7.59;74.56
77043;BME280;65975;53.936;27.540;2022-12-18T03:50:36;100092.13;;;-7.22;75.39
77043;BME280;65975;53.936;27.540;2022-12-18T03:53:09;100087.56;;;-6.97;74.69
77043;BME280;65975;53.936;27.540;2022-12-18T03:55:39;100063.25;;;-7.22;74.16
77043;BME280;65975;53.936;27.540;2022-12-18T03:58:07;100091.44;;;-7.34;75.58
77043;BME280;65975;53.936;27.540;2022-12-18T04:00:34;100097.78;;;-7.11;74.27
77043;BME280;65975;53.936;27.540;2022-12-18T04:03:01;100106.81;;;-7.47;74.90
77043;BME280;65975;53.936;27.540;2022-12-18T04:05:28;100107.41;;;-7.06;73.93
77043;BME280;65975;53.936;27.540;2022-12-18T04:07:54;100059.19;;;-7.19;73.99
77043;BME280;65975;53.936;27.540;2022-12-18T04:10:20;100098.47;;;-6.83;73.78
77043;BME280;65975;53.936;27.540;2022-12-18T04:12:45;100127.91;;;-6.88;72.58
77043;BME280;65975;53.936;27.540;2022-12-18T04:15:12;100109.72;;;-7.10;73.83
77043;BME280;65975;53.936;27.540;2022-12-18T04:17:38;100050.25;;;-7.58;73.26
77043;BME280;65975;53.936;27.540;2022-12-18T04:20:08;100130.91;;;-7.26;74.28
77043;BME280;65975;53.936;27.540;2022-12-18T04:22:34;100086.22;;;-7.52;74.24
77043;BME280;65975;53.936;27.540;2022-12-18T04:25:00;100142.78;;;-7.41;74.24
77043;BME280;65975;53.936;27.540;2022-12-18T04:27:26;100121.00;;;-7.51;74.52
77043;BME280;65975;53.936;27.540;2022-12-18T04:29:51;100155.97;;;-7.17;74.09
77043;BME280;65975;53.936;27.540;2022-12-18T04:32:17;100113.47;;;-7.49;74.47
77043;BME280;65975;53.936;27.540;2022-12-18T04:34:42;100140.00;;;-7.15;73.80
77043;BME280;65975;53.936;27.540;2022-12-18T04:37:07;100145.72;;;-6.88;73.33
77043;BME280;65975;53.936;27.540;2022-12-18T04:39:33;100124.72;;;-7.00;73.29
77043;BME280;65975;53.936;27.540;2022-12-18T04:42:02;100129.53;;;-7.05;73.63
77043;BME280;65975;53.936;27.540;2022-12-18T04:44:27;100145.53;;;-7.07;73.40
77043;BME280;65975;53.936;27.540;2022-12-18T04:46:53;100163.91;;;-7.28;74.17
77043;BME280;65975;53.936;27.540;2022-12-18T04:49:18;100175.53;;;-7.02;74.04
77043;BME280;65975;53.936;27.540;2022-12-18T04:51:44;100175.81;;;-6.81;73.71
77043;BME280;65975;53.936;27.540;2022-12-18T04:54:09;100154.44;;;-6.68;72.36
77043;BME280;65975;53.936;27.540;2022-12-18T04:56:35;100169.44;;;-6.89;73.69
77043;BME280;65975;53.936;27.540;2022-12-18T04:59:00;100133.72;;;-7.36;74.22
77043;BME280;65975;53.936;27.540;2022-12-18T05:01:26;100197.84;;;-6.81;73.47
77043;BME280;65975;53.936;27.540;2022-12-18T05:03:52;100178.50;;;-6.94;73.41
77043;BME280;65975;53.936;27.540;2022-12-18T05:06:17;100206.75;;;-7.19;74.26
77043;BME280;65975;53.936;27.540;2022-12-18T05:08:43;100190.41;;;-7.53;75.19
77043;BME280;65975;53.936;27.540;2022-12-18T05:11:14;100209.59;;;-7.29;75.48
77043;BME280;65975;53.936;27.540;2022-12-18T05:13:41;100221.00;;;-7.22;75.25
77043;BME280;65975;53.936;27.540;2022-12-18T05:16:08;100214.78;;;-7.13;74.50
77043;BME280;65975;53.936;27.540;2022-12-18T05:18:34;100227.06;;;-7.20;75.42
77043;BME280;65975;53.936;27.540;2022-12-18T05:21:00;100221.88;;;-7.07;74.59
77043;BME280;65975;53.936;27.540;2022-12-18T05:23:26;100221.69;;;-7.25;74.38
77043;BME280;65975;53.936;27.540;2022-12-18T05:26:00;100233.00;;;-7.05;75.13
77043;BME280;65975;53.936;27.540;2022-12-18T05:28:27;100200.28;;;-7.14;74.98
77043;BME280;65975;53.936;27.540;2022-12-18T05:30:56;100233.22;;;-6.86;74.05
77043;BME280;65975;53.936;27.540;2022-12-18T05:33:24;100231.50;;;-7.02;74.19
77043;BME280;65975;53.936;27.540;2022-12-18T05:35:54;100253.34;;;-7.49;75.65
77043;BME280;65975;53.936;27.540;2022-12-18T05:38:22;100259.75;;;-7.41;75.99
77043;BME280;65975;53.936;27.540;2022-12-18T05:40:49;100258.81;;;-7.29;75.50
77043;BME280;65975;53.936;27.540;2022-12-18T05:43:15;100264.56;;;-7.60;75.63
77043;BME280;65975;53.936;27.540;2022-12-18T05:45:41;100255.50;;;-7.70;76.74
77043;BME280;65975;53.936;27.540;2022-12-18T05:48:07;100290.19;;;-7.43;76.26
77043;BME280;65975;53.936;27.540;2022-12-18T05:50:36;100269.38;;;-7.50;75.99
77043;BME280;65975;53.936;27.540;2022-12-18T05:53:03;100300.16;;;-7.60;76.27
77043;BME280;65975;53.936;27.540;2022-12-18T05:55:28;100290.38;;;-7.82;77.13
77043;BME280;65975;53.936;27.540;2022-12-18T05:57:54;100290.16;;;-7.72;76.47
77043;BME280;65975;53.936;27.540;2022-12-18T06:00:19;100303.81;;;-7.70;76.44
77043;BME280;65975;53.936;27.540;2022-12-18T06:02:48;100298.16;;;-8.07;77.39
77043;BME280;65975;53.936;27.540;2022-12-18T06:05:13;100319.16;;;-7.69;77.23
77043;BME280;65975;53.936;27.540;2022-12-18T06:07:39;100294.50;;;-7.84;76.51
77043;BME280;65975;53.936;27.540;2022-12-18T06:10:05;100338.41;;;-7.59;76.03
77043;BME280;65975;53.936;27.540;2022-12-18T06:12:31;100271.88;;;-8.08;76.32
77043;BME280;65975;53.936;27.540;2022-12-18T06:14:58;100323.19;;;-7.72;75.73
77043;BME280;65975;53.936;27.540;2022-12-18T06:17:30;100302.09;;;-8.12;75.93
77043;BME280;65975;53.936;27.540;2022-12-18T06:19:56;100308.16;;;-8.10;75.95
77043;BME280;65975;53.936;27.540;2022-12-18T06:22:22;100366.94;;;-7.91;75.67
77043;BME280;65975;53.936;27.540;2022-12-18T06:24:48;100343.81;;;-8.22;76.15
77043;BME280;65975;53.936;27.540;2022-12-18T06:27:14;100376.25;;;-8.04;75.98
77043;BME280;65975;53.936;27.540;2022-12-18T06:29:39;100349.97;;;-8.05;74.83
77043;BME280;65975;53.936;27.540;2022-12-18T06:32:05;100395.41;;;-7.55;74.43
77043;BME280;65975;53.936;27.540;2022-12-18T06:34:31;100365.28;;;-8.03;74.04
77043;BME280;65975;53.936;27.540;2022-12-18T06:36:58;100390.41;;;-8.21;75.29
77043;BME280;65975;53.936;27.540;2022-12-18T06:39:23;100416.69;;;-8.21;75.00
77043;BME280;65975;53.936;27.540;2022-12-18T06:41:49;100430.25;;;-7.81;74.46
77043;BME280;65975;53.936;27.540;2022-12-18T06:44:14;100409.78;;;-7.56;73.17
77043;BME280;65975;53.936;27.540;2022-12-18T06:46:40;100438.03;;;-7.64;72.84
77043;BME280;65975;53.936;27.540;2022-12-18T06:49:05;100433.88;;;-7.90;73.75
77043;BME280;65975;53.936;27.540;2022-12-18T06:51:31;100444.31;;;-7.59;73.92
77043;BME280;65975;53.936;27.540;2022-12-18T06:53:56;100420.78;;;-7.42;72.71
77043;BME280;65975;53.936;27.540;2022-12-18T06:56:22;100446.66;;;-7.21;71.92
77043;BME280;65975;53.936;27.540;2022-12-18T06:58:50;100465.19;;;-8.04;73.88
77043;BME280;65975;53.936;27.540;2022-12-18T07:01:16;100452.25;;;-7.68;73.52
77043;BME280;65975;53.936;27.540;2022-12-18T07:03:41;100461.03;;;-7.63;73.72
77043;BME280;65975;53.936;27.540;2022-12-18T07:06:16;100461.94;;;-7.76;72.60
77043;BME280;65975;53.936;27.540;2022-12-18T07:08:42;100468.00;;;-8.26;74.75
77043;BME280;65975;53.936;27.540;2022-12-18T07:11:08;100404.34;;;-8.42;73.94
77043;BME280;65975;53.936;27.540;2022-12-18T07:13:34;100470.63;;;-7.72;73.03
77043;BME280;65975;53.936;27.540;2022-12-18T07:16:11;100477.41;;;-7.99;73.34
77043;BME280;65975;53.936;27.540;2022-12-18T07:18:38;100473.19;;;-7.85;72.32
77043;BME280;65975;53.936;27.540;2022-12-18T07:21:09;100467.50;;;-7.94;73.10
77043;BME280;65975;53.936;27.540;2022-12-18T07:23:35;100495.19;;;-7.86;72.83
77043;BME280;65975;53.936;27.540;2022-12-18T07:26:08;100481.22;;;-7.92;72.71
77043;BME280;65975;53.936;27.540;2022-12-18T07:28:35;100500.38;;;-7.84;72.25
77043;BME280;65975;53.936;27.540;2022-12-18T07:31:11;100509.34;;;-8.02;73.37
77043;BME280;65975;53.936;27.540;2022-12-18T07:33:37;100479.72;;;-8.02;73.08
77043;BME280;65975;53.936;27.540;2022-12-18T07:36:04;100517.44;;;-7.55;72.07
77043;BME280;65975;53.936;27.540;2022-12-18T07:38:31;100447.22;;;-7.53;70.44
77043;BME280;65975;53.936;27.540;2022-12-18T07:41:01;100514.56;;;-7.20;70.93
77043;BME280;65975;53.936;27.540;2022-12-18T07:43:27;100497.00;;;-7.44;70.57
77043;BME280;65975;53.936;27.540;2022-12-18T07:45:52;100470.25;;;-8.04;71.03
77043;BME280;65975;53.936;27.540;2022-12-18T07:48:17;100531.56;;;-7.60;71.44
77043;BME280;65975;53.936;27.540;2022-12-18T07:50:44;100521.88;;;-7.53;69.66
77043;BME280;65975;53.936;27.540;2022-12-18T07:53:10;100476.63;;;-7.85;69.21
77043;BME280;65975;53.936;27.540;2022-12-18T07:55:35;100548.56;;;-7.46;69.25
77043;BME280;65975;53.936;27.540;2022-12-18T07:58:02;100551.88;;;-7.34;68.06
77043;BME280;65975;53.936;27.540;2022-12-18T08:00:28;100549.84;;;-7.79;68.48
77043;BME280;65975;53.936;27.540;2022-12-18T08:02:53;100527.53;;;-7.96;68.14
77043;BME280;65975;53.936;27.540;2022-12-18T08:05:19;100549.34;;;-7.87;67.91
77043;BME280;65975;53.936;27.540;2022-12-18T08:07:46;100560.84;;;-8.05;67.75
77043;BME280;65975;53.936;27.540;2022-12-18T08:10:11;100548.94;;;-7.93;67.21
77043;BME280;65975;53.936;27.540;2022-12-18T08:12:37;100560.47;;;-7.98;66.63
77043;BME280;65975;53.936;27.540;2022-12-18T08:15:03;100559.97;;;-8.05;66.20
77043;BME280;65975;53.936;27.540;2022-12-18T08:17:28;100575.22;;;-8.05;67.00
77043;BME280;65975;53.936;27.540;2022-12-18T08:19:54;100571.34;;;-8.38;66.66
77043;BME280;65975;53.936;27.540;2022-12-18T08:22:19;100548.09;;;-8.44;67.06
77043;BME280;65975;53.936;27.540;2022-12-18T08:24:45;100507.00;;;-8.39;66.11
77043;BME280;65975;53.936;27.540;2022-12-18T08:27:10;100586.72;;;-7.73;65.77
77043;BME280;65975;53.936;27.540;2022-12-18T08:29:36;100575.31;;;-8.17;65.11
77043;BME280;65975;53.936;27.540;2022-12-18T08:32:01;100581.22;;;-7.92;64.83
77043;BME280;65975;53.936;27.540;2022-12-18T08:34:26;100574.41;;;-8.18;65.00
77043;BME280;65975;53.936;27.540;2022-12-18T08:36:52;100584.34;;;-8.34;66.10
77043;BME280;65975;53.936;27.540;2022-12-18T08:39:18;100613.84;;;-8.61;66.60
77043;BME280;65975;53.936;27.540;2022-12-18T08:41:43;100612.47;;;-8.80;67.29
77043;BME280;65975;53.936;27.540;2022-12-18T08:44:29;100585.97;;;-9.09;67.78
77043;BME280;65975;53.936;27.540;2022-12-18T08:47:04;100618.47;;;-8.92;67.33
77043;BME280;65975;53.936;27.540;2022-12-18T08:49:30;100621.94;;;-9.14;68.01
77043;BME280;65975;53.936;27.540;2022-12-18T08:51:56;100600.75;;;-9.15;67.47
77043;BME280;65975;53.936;27.540;2022-12-18T08:54:25;100625.69;;;-8.36;65.98
77043;BME280;65975;53.936;27.540;2022-12-18T08:56:50;100581.06;;;-8.94;65.80
77043;BME280;65975;53.936;27.540;2022-12-18T08:59:16;100636.13;;;-9.05;67.41
77043;BME280;65975;53.936;27.540;2022-12-18T09:01:42;100629.50;;;-8.91;67.25
77043;BME280;65975;53.936;27.540;2022-12-18T09:04:11;100630.69;;;-8.86;66.66
77043;BME280;65975;53.936;27.540;2022-12-18T09:06:37;100594.84;;;-8.91;66.42
77043;BME280;65975;53.936;27.540;2022-12-18T09:09:04;100642.56;;;-8.37;65.17
77043;BME280;65975;53.936;27.540;2022-12-18T09:11:30;100645.31;;;-8.21;64.95
77043;BME280;65975;53.936;27.540;2022-12-18T09:13:57;100650.31;;;-8.47;65.21
77043;BME280;65975;53.936;27.540;2022-12-18T09:16:24;100654.91;;;-8.66;65.30
77043;BME280;65975;53.936;27.540;2022-12-18T09:18:50;100650.88;;;-8.76;65.36
77043;BME280;65975;53.936;27.540;2022-12-18T09:21:18;100665.91;;;-9.25;66.50
77043;BME280;65975;53.936;27.540;2022-12-18T09:23:49;100669.47;;;-9.47;67.39
77043;BME280;65975;53.936;27.540;2022-12-18T09:26:14;100625.16;;;-9.28;65.45
77043;BME280;65975;53.936;27.540;2022-12-18T09:28:40;100668.44;;;-8.91;66.05
77043;BME280;65975;53.936;27.540;2022-12-18T09:31:07;100677.94;;;-9.11;66.70
77043;BME280;65975;53.936;27.540;2022-12-18T09:33:35;100662.09;;;-9.20;67.11
77043;BME280;65975;53.936;27.540;2022-12-18T09:36:05;100655.78;;;-9.02;66.68
77043;BME280;65975;53.936;27.540;2022-12-18T09:38:32;100676.94;;;-9.13;66.71
77043;BME280;65975;53.936;27.540;2022-12-18T09:41:02;100690.31;;;-9.27;67.66
77043;BME280;65975;53.936;27.540;2022-12-18T09:43:41;100685.69;;;-8.50;65.12
77043;BME280;65975;53.936;27.540;2022-12-18T09:46:11;100626.97;;;-8.91;65.36
77043;BME280;65975;53.936;27.540;2022-12-18T09:48:44;100639.94;;;-8.00;63.15
77043;BME280;65975;53.936;27.540;2022-12-18T09:51:24;100609.00;;;-8.20;62.12
77043;BME280;65975;53.936;27.540;2022-12-18T09:53:56;100706.19;;;-8.22;63.03
77043;BME280;65975;53.936;27.540;2022-12-18T09:56:25;100689.34;;;-7.71;62.43
77043;BME280;65975;53.936;27.540;2022-12-18T09:58:58;100663.81;;;-8.23;62.63
77043;BME280;65975;53.936;27.540;2022-12-18T10:01:24;100650.91;;;-8.51;64.22
77043;BME280;65975;53.936;27.540;2022-12-18T10:03:52;100699.03;;;-8.53;64.49
77043;BME280;65975;53.936;27.540;2022-12-18T10:06:36;100649.13;;;-8.88;65.60
77043;BME280;65975;53.936;27.540;2022-12-18T10:20:33;100695.25;;;-7.96;63.17
77043;BME280;65975;53.936;27.540;2022-12-18T10:23:08;100710.00;;;-7.28;62.08
77043;BME280;65975;53.936;27.540;2022-12-18T10:28:35;100678.16;;;-6.69;60.80
77043;BME280;65975;53.936;27.540;2022-12-18T10:31:01;100702.59;;;-5.74;57.58
77043;BME280;65975;53.936;27.540;2022-12-18T10:33:31;100716.84;;;-5.63;57.00
77043;BME280;65975;53.936;27.540;2022-12-18T10:35:57;100716.13;;;-5.75;57.75
77043;BME280;65975;53.936;27.540;2022-12-18T10:38:26;100719.72;;;-5.86;58.47
77043;BME280;65975;53.936;27.540;2022-12-18T10:40:57;100707.94;;;-5.84;58.29
77043;BME280;65975;53.936;27.540;2022-12-18T10:43:38;100731.19;;;-6.08;59.67
77043;BME280;65975;53.936;27.540;2022-12-18T10:51:32;100730.97;;;-4.34;54.07
77043;BME280;65975;53.936;27.540;2022-12-18T10:56:41;100704.41;;;-4.84;54.81
77043;BME280;65975;53.936;27.540;2022-12-18T10:59:09;100721.63;;;-5.40;57.80
77043;BME280;65975;53.936;27.540;2022-12-18T11:01:55;100711.00;;;-5.75;58.94
77043;BME280;65975;53.936;27.540;2022-12-18T11:04:27;100748.56;;;-5.87;59.29
77043;BME280;65975;53.936;27.540;2022-12-18T11:07:00;100751.66;;;-5.93;59.83
77043;BME280;65975;53.936;27.540;2022-12-18T11:09:28;100756.44;;;-6.25;60.85
77043;BME280;65975;53.936;27.540;2022-12-18T11:11:59;100761.16;;;-6.31;60.20
77043;BME280;65975;53.936;27.540;2022-12-18T11:14:46;100749.16;;;-6.73;61.29
77043;BME280;65975;53.936;27.540;2022-12-18T11:19:57;100762.19;;;-6.82;62.03
77043;BME280;65975;53.936;27.540;2022-12-18T11:22:28;100737.19;;;-7.27;63.29
77043;BME280;65975;53.936;27.540;2022-12-18T11:25:16;100771.97;;;-7.01;63.44
77043;BME280;65975;53.936;27.540;2022-12-18T11:27:52;100770.72;;;-6.95;62.68
77043;BME280;65975;53.936;27.540;2022-12-18T11:30:32;100791.09;;;-6.81;62.58
77043;BME280;65975;53.936;27.540;2022-12-18T11:33:19;100759.72;;;-6.54;61.65
77043;BME280;65975;53.936;27.540;2022-12-18T11:35:52;100780.88;;;-6.01;60.20
77043;BME280;65975;53.936;27.540;2022-12-18T11:38:26;100784.38;;;-6.27;60.92
77043;BME280;65975;53.936;27.540;2022-12-18T11:40:58;100761.75;;;-6.22;59.89
77043;BME280;65975;53.936;27.540;2022-12-18T11:43:56;100793.91;;;-6.37;60.96
77043;BME280;65975;53.936;27.540;2022-12-18T11:46:32;100800.28;;;-6.44;60.79
77043;BME280;65975;53.936;27.540;2022-12-18T11:49:20;100803.44;;;-6.88;63.41
77043;BME280;65975;53.936;27.540;2022-12-18T11:51:55;100776.78;;;-6.79;62.61
77043;BME280;65975;53.936;27.540;2022-12-18T11:54:24;100714.78;;;-6.80;62.01
77043;BME280;65975;53.936;27.540;2022-12-18T11:56:55;100803.38;;;-5.24;59.40
77043;BME280;65975;53.936;27.540;2022-12-18T11:59:28;100789.38;;;-4.26;56.98
77043;BME280;65975;53.936;27.540;2022-12-18T12:04:53;100803.16;;;-3.10;52.83
77043;BME280;65975;53.936;27.540;2022-12-18T12:07:50;100796.19;;;-3.63;53.31
77043;BME280;65975;53.936;27.540;2022-12-18T12:10:50;100759.91;;;-4.19;54.42
77043;BME280;65975;53.936;27.540;2022-12-18T12:32:29;100826.41;;;-3.07;50.75
77043;BME280;65975;53.936;27.540;2022-12-18T12:40:52;100864.59;;;-5.25;59.98
77043;BME280;65975;53.936;27.540;2022-12-18T12:46:03;100879.91;;;-5.94;61.34
77043;BME280;65975;53.936;27.540;2022-12-18T12:53:40;100884.25;;;-6.59;63.63
77043;BME280;65975;53.936;27.540;2022-12-18T12:56:07;100902.34;;;-6.67;64.21
77043;BME280;65975;53.936;27.540;2022-12-18T13:06:50;100863.50;;;-7.03;65.58
77043;BME280;65975;53.936;27.540;2022-12-18T13:09:19;100898.44;;;-6.75;65.72
77043;BME280;65975;53.936;27.540;2022-12-18T13:11:46;100898.56;;;-6.99;65.82
77043;BME280;65975;53.936;27.540;2022-12-18T13:14:39;100909.84;;;-7.20;67.25
77043;BME280;65975;53.936;27.540;2022-12-18T13:19:51;100900.34;;;-7.47;67.57
77043;BME280;65975;53.936;27.540;2022-12-18T13:22:33;100894.84;;;-7.29;67.61
77043;BME280;65975;53.936;27.540;2022-12-18T13:24:59;100874.69;;;-7.50;67.53
77043;BME280;65975;53.936;27.540;2022-12-18T13:40:56;100939.03;;;-6.90;68.13
77043;BME280;65975;53.936;27.540;2022-12-18T13:46:18;100957.09;;;-6.99;68.53
77043;BME280;65975;53.936;27.540;2022-12-18T13:48:55;100949.66;;;-6.71;68.00
77043;BME280;65975;53.936;27.540;2022-12-18T13:51:22;100925.38;;;-6.66;67.17
77043;BME280;65975;53.936;27.540;2022-12-18T13:56:27;100938.44;;;-6.86;68.08
77043;BME280;65975;53.936;27.540;2022-12-18T13:59:12;100954.41;;;-6.89;68.70
77043;BME280;65975;53.936;27.540;2022-12-18T14:01:59;100963.06;;;-6.73;68.55
77043;BME280;65975;53.936;27.540;2022-12-18T14:04:28;100972.63;;;-6.58;67.89
77043;BME280;65975;53.936;27.540;2022-12-18T14:09:44;100906.16;;;-7.37;70.15
77043;BME280;65975;53.936;27.540;2022-12-18T14:12:22;100972.38;;;-6.74;70.00
77043;BME280;65975;53.936;27.540;2022-12-18T14:20:51;100983.16;;;-7.39;70.51
77043;BME280;65975;53.936;27.540;2022-12-18T14:23:40;100997.31;;;-7.06;71.31
77043;BME280;65975;53.936;27.540;2022-12-18T14:26:25;100982.59;;;-7.35;71.77
77043;BME280;65975;53.936;27.540;2022-12-18T14:28:53;100999.75;;;-7.33;71.29
77043;BME280;65975;53.936;27.540;2022-12-18T14:31:24;100990.88;;;-7.26;71.23
77043;BME280;65975;53.936;27.540;2022-12-18T14:33:51;100994.97;;;-7.28;71.53
77043;BME280;65975;53.936;27.540;2022-12-18T14:36:22;100981.78;;;-7.22;70.85
77043;BME280;65975;53.936;27.540;2022-12-18T14:38:50;101011.19;;;-7.14;70.79
77043;BME280;65975;53.936;27.540;2022-12-18T14:41:18;101007.69;;;-7.28;70.86
77043;BME280;65975;53.936;27.540;2022-12-18T14:43:46;101014.81;;;-7.11;71.27
77043;BME280;65975;53.936;27.540;2022-12-18T14:46:35;101021.28;;;-6.91;70.72
77043;BME280;65975;53.936;27.540;2022-12-18T14:51:53;100963.53;;;-7.29;70.42